Time;durP1;ratioP1;P1;durP2;ratioP2;P2;SDS_P1;SDS_P2;PMS_P1;PMS_P2;Temp;Humidity;BMP_temperature;BMP_pressure;BME280_temperature;BME280_humidity;BME280_pressure;Samples;Min_cycle;Max_cycle;Signal;HPM_P1;HPM_P2
2023/10/02 00:01:56;;;;;;;16.10;9.48;;;16.20;99.90;;;;;;5113603;27;20135;-63
2023/10/02 00:04:24;;;;;;;15.65;8.93;;;16.20;99.90;;;;;;5132143;27;20035;-63
2023/10/02 00:07:05;;;;;;;20.13;9.88;;;16.20;99.90;;;;;;5112296;27;20058;-63
2023/10/02 00:09:49;;;;;;;17.05;9.48;;;16.10;99.90;;;;;;5130067;27;20042;-63
2023/10/02 00:12:19;;;;;;;15.05;9.60;;;16.10;99.90;;;;;;5131910;27;20043;-63
2023/10/02 00:14:48;;;;;;;17.73;9.80;;;16.10;99.90;;;;;;5114116;27;20390;-63
2023/10/02 00:17:15;;;;;;;14.82;9.20;;;16.10;99.90;;;;;;5111200;27;20390;-62
2023/10/02 00:19:44;;;;;;;18.10;10.38;;;16.20;99.90;;;;;;5131931;27;20351;-62
2023/10/02 00:25:08;;;;;;;15.97;9.27;;;16.20;99.90;;;;;;5131838;27;20111;-63
2023/10/02 00:27:34;;;;;;;;;;;16.20;99.90;;;;;;5113335;27;20316;-62
2023/10/02 00:30:01;;;;;;;15.65;9.02;;;16.20;99.90;;;;;;5131538;27;19946;-63
2023/10/02 00:32:33;;;;;;;14.88;9.35;;;16.20;99.90;;;;;;5096282;27;20082;-62
2023/10/02 00:35:00;;;;;;;15.95;9.48;;;16.20;99.90;;;;;;5113532;27;20043;-63
2023/10/02 00:37:46;;;;;;;16.15;9.70;;;16.20;99.90;;;;;;5131373;27;20091;-62
2023/10/02 00:40:22;;;;;;;16.58;9.55;;;16.30;99.90;;;;;;5110014;27;20547;-63
2023/10/02 00:42:55;;;;;;;16.00;9.82;;;16.30;99.90;;;;;;5112711;27;20046;-63
2023/10/02 00:45:42;;;;;;;15.45;8.88;;;16.30;99.90;;;;;;5131200;27;20039;-62
2023/10/02 00:48:28;;;;;;;17.67;10.18;;;16.30;99.90;;;;;;5096011;27;20035;-63
2023/10/02 00:51:06;;;;;;;17.30;9.98;;;16.30;99.90;;;;;;5107664;27;20084;-63
2023/10/02 00:53:38;;;;;;;18.85;11.30;;;16.30;99.90;;;;;;5121935;27;20043;-63
2023/10/02 00:56:20;;;;;;;15.80;11.23;;;16.30;99.90;;;;;;5110382;27;20050;-63
2023/10/02 00:58:54;;;;;;;17.33;10.52;;;16.30;99.90;;;;;;5110734;27;20047;-63
2023/10/02 01:01:20;;;;;;;19.95;10.88;;;16.30;99.90;;;;;;5110709;27;20050;-63
2023/10/02 01:06:31;;;;;;;20.55;11.40;;;16.30;99.90;;;;;;5131040;27;20073;-63
2023/10/02 01:09:00;;;;;;;16.73;10.82;;;16.40;99.90;;;;;;5095615;27;20554;-63
2023/10/02 01:11:26;;;;;;;22.23;12.40;;;16.30;99.90;;;;;;5111633;27;20052;-63
2023/10/02 01:13:54;;;;;;;22.00;11.98;;;16.40;99.90;;;;;;5131100;27;20450;-63
2023/10/02 01:16:20;;;;;;;21.50;11.85;;;16.40;99.90;;;;;;5112464;27;20058;-62
2023/10/02 01:18:48;;;;;;;17.58;11.23;;;16.40;99.90;;;;;;5130796;27;20047;-62
2023/10/02 01:21:18;;;;;;;19.83;11.50;;;16.40;99.90;;;;;;5111388;27;20508;-62
2023/10/02 01:26:43;;;;;;;19.25;11.52;;;16.40;99.90;;;;;;5111924;28;20054;-63
2023/10/02 01:29:12;;;;;;;20.15;12.02;;;16.40;99.90;;;;;;5130991;28;21528;-62
2023/10/02 01:31:44;;;;;;;22.05;12.52;;;16.40;99.90;;;;;;5110737;28;20404;-63
2023/10/02 01:34:13;;;;;;;20.98;12.00;;;16.40;99.90;;;;;;5113240;28;20035;-63
2023/10/02 01:36:41;;;;;;;27.15;12.57;;;16.40;99.90;;;;;;5130464;28;20088;-63
2023/10/02 01:39:16;;;;;;;19.60;12.13;;;16.40;99.90;;;;;;5112272;28;20047;-63
2023/10/02 01:41:52;;;;;;;22.52;12.40;;;16.40;99.90;;;;;;5130613;28;20072;-63
2023/10/02 01:44:22;;;;;;;21.50;12.32;;;16.40;99.90;;;;;;5093416;28;20046;-62
2023/10/02 01:46:52;;;;;;;18.90;11.80;;;16.40;99.90;;;;;;5130683;27;20658;-63
2023/10/02 01:49:25;;;;;;;19.33;11.95;;;16.40;99.90;;;;;;5134363;27;20039;-63
2023/10/02 01:51:58;;;;;;;22.48;12.73;;;16.40;99.90;;;;;;5134599;27;20405;-62
2023/10/02 01:54:31;;;;;;;19.52;12.00;;;16.40;99.90;;;;;;5133726;27;20096;-63
2023/10/02 01:56:59;;;;;;;18.67;11.77;;;16.40;99.90;;;;;;5124672;27;20504;-63
2023/10/02 01:59:25;;;;;;;19.02;11.55;;;16.50;99.90;;;;;;5116184;27;20081;-62
2023/10/02 02:01:54;;;;;;;18.17;11.48;;;16.40;99.90;;;;;;5114855;27;20039;-62
2023/10/02 02:04:32;;;;;;;18.23;10.85;;;16.50;99.90;;;;;;5134111;27;20042;-63
2023/10/02 02:07:00;;;;;;;17.70;10.55;;;16.50;99.90;;;;;;5131530;27;20108;-62
2023/10/02 02:09:27;;;;;;;19.25;10.45;;;16.50;99.90;;;;;;5115670;27;20042;-62
2023/10/02 02:12:10;;;;;;;19.15;11.90;;;16.50;99.90;;;;;;5115958;27;20035;-62
2023/10/02 02:14:49;;;;;;;23.67;12.40;;;16.50;99.90;;;;;;5116174;27;20054;-63
2023/10/02 02:17:26;;;;;;;20.27;11.55;;;16.50;99.90;;;;;;5115318;27;20039;-63
2023/10/02 02:19:52;;;;;;;18.42;11.45;;;16.50;99.90;;;;;;5116598;27;20427;-63
2023/10/02 02:22:19;;;;;;;20.05;11.60;;;16.50;99.90;;;;;;5130314;27;20042;-62
2023/10/02 02:24:46;;;;;;;19.33;11.80;;;16.50;99.90;;;;;;5115860;27;20151;-63
2023/10/02 02:27:12;;;;;;;20.02;11.55;;;16.50;99.90;;;;;;5113852;27;20498;-62
2023/10/02 02:29:38;;;;;;;18.60;11.13;;;16.40;99.90;;;;;;5116058;27;20078;-62
2023/10/02 02:32:07;;;;;;;19.10;11.05;;;16.40;99.90;;;;;;5115975;27;20035;-63
2023/10/02 02:34:33;;;;;;;17.85;11.10;;;16.40;99.90;;;;;;5134091;27;20035;-63
2023/10/02 02:36:59;;;;;;;18.48;11.73;;;16.40;99.90;;;;;;5133214;27;20035;-63
2023/10/02 02:39:27;;;;;;;18.67;11.40;;;16.40;99.90;;;;;;5097695;27;20043;-62
2023/10/02 02:44:43;;;;;;;20.75;11.27;;;16.30;99.90;;;;;;5133531;27;20046;-63
2023/10/02 02:47:10;;;;;;;21.90;11.63;;;16.30;99.90;;;;;;5113581;27;20039;-63
2023/10/02 02:49:50;;;;;;;18.40;11.07;;;16.30;99.90;;;;;;5133956;27;20071;-62
2023/10/02 02:52:17;;;;;;;17.40;11.45;;;16.30;99.90;;;;;;5133600;27;20070;-62
2023/10/02 02:54:47;;;;;;;20.65;11.68;;;16.20;99.90;;;;;;5115310;27;20043;-62
2023/10/02 02:57:24;;;;;;;19.25;11.40;;;16.20;99.90;;;;;;5115179;27;20078;-63
2023/10/02 03:02:46;;;;;;;18.10;10.50;;;16.10;99.90;;;;;;5113328;27;20088;-63
2023/10/02 03:05:16;;;;;;;18.75;10.63;;;16.00;99.90;;;;;;5131726;27;20505;-62
2023/10/02 03:07:44;;;;;;;17.48;11.30;;;16.00;99.90;;;;;;5114081;27;20039;-63
2023/10/02 03:10:11;;;;;;;16.05;9.90;;;15.90;99.90;;;;;;5129180;27;20050;-62
2023/10/02 03:12:50;;;;;;;17.52;10.80;;;15.90;99.90;;;;;;5096491;27;20118;-63
2023/10/02 03:15:18;;;;;;;19.77;11.23;;;15.90;99.90;;;;;;5130091;27;20439;-63
2023/10/02 03:17:46;;;;;;;17.90;10.32;;;15.90;99.90;;;;;;5113472;27;20550;-62
2023/10/02 03:20:24;;;;;;;19.35;11.27;;;15.90;99.90;;;;;;5112173;27;20094;-63
2023/10/02 03:22:57;;;;;;;18.33;10.93;;;15.80;99.90;;;;;;5133079;27;20092;-62
2023/10/02 03:25:40;;;;;;;21.10;11.90;;;15.80;99.90;;;;;;5114548;27;20043;-62
2023/10/02 03:28:28;;;;;;;18.02;11.02;;;15.80;99.90;;;;;;5114583;27;20053;-63
2023/10/02 03:30:55;;;;;;;18.08;11.65;;;15.80;99.90;;;;;;5113377;27;20043;-63
2023/10/02 03:33:21;;;;;;;17.42;10.98;;;15.70;99.90;;;;;;5097516;27;20038;-63
2023/10/02 03:36:08;;;;;;;17.42;10.70;;;15.70;99.90;;;;;;5114644;27;20597;-62
2023/10/02 03:38:41;;;;;;;17.23;10.10;;;15.60;99.90;;;;;;5114056;27;20046;-62
2023/10/02 03:41:07;;;;;;;18.80;11.48;;;15.60;99.90;;;;;;5112817;27;20035;-63
2023/10/02 03:43:35;;;;;;;19.85;11.07;;;15.60;99.90;;;;;;5132476;27;20035;-62
2023/10/02 03:46:13;;;;;;;16.73;11.05;;;15.60;99.90;;;;;;5114514;27;20389;-62
2023/10/02 03:48:39;;;;;;;21.67;11.35;;;15.50;99.90;;;;;;5114005;27;20067;-63
2023/10/02 03:51:06;;;;;;;19.13;11.13;;;15.50;99.90;;;;;;5113797;27;20035;-62
2023/10/02 03:53:34;;;;;;;21.67;11.57;;;15.40;99.90;;;;;;5131265;27;20072;-62
2023/10/02 03:56:36;;;;;;;18.25;10.60;;;15.40;99.90;;;;;;5114016;27;20075;-63
2023/10/02 03:58:52;;;;;;;17.00;10.43;;;15.40;99.90;;;;;;5114071;27;20047;-63
2023/10/02 04:01:31;;;;;;;18.92;11.23;;;15.40;99.90;;;;;;5113779;27;20050;-62
2023/10/02 04:06:35;;;;;;;18.50;10.70;;;15.40;99.90;;;;;;5113723;27;20047;-63
2023/10/02 04:09:23;;;;;;;17.45;11.32;;;15.40;99.90;;;;;;5132094;27;20099;-63
2023/10/02 04:11:53;;;;;;;22.35;11.90;;;15.50;99.90;;;;;;5113311;27;20103;-63
2023/10/02 04:14:31;;;;;;;19.02;10.55;;;15.50;99.90;;;;;;5131289;27;20043;-63
2023/10/02 04:19:58;;;;;;;17.80;10.55;;;15.50;99.90;;;;;;5132030;27;20043;-62
2023/10/02 04:22:25;;;;;;;22.98;12.13;;;15.50;99.90;;;;;;5113188;27;20049;-63
2023/10/02 04:24:58;;;;;;;20.02;11.90;;;15.50;99.90;;;;;;5111561;27;20043;-62
2023/10/02 04:28:00;;;;;;;19.20;11.70;;;15.50;99.90;;;;;;5131804;27;20074;-63
2023/10/02 04:32:51;;;;;;;18.08;11.55;;;15.60;99.90;;;;;;5113418;27;20049;-63
2023/10/02 04:38:09;;;;;;;19.95;11.93;;;15.50;99.90;;;;;;5131711;27;20042;-62
2023/10/02 04:40:44;;;;;;;;;;;15.50;99.90;;;;;;5113660;27;20053;-63
2023/10/02 04:43:28;;;;;;;18.20;11.57;;;15.60;99.90;;;;;;5131539;27;19926;-63
2023/10/02 04:46:08;;;;;;;21.10;12.10;;;15.50;99.90;;;;;;5130707;27;20486;-63
2023/10/02 04:48:42;;;;;;;20.50;11.45;;;15.50;99.90;;;;;;5097555;27;20486;-63
2023/10/02 04:51:08;;;;;;;19.73;12.00;;;15.50;99.90;;;;;;5112927;27;20047;-62
2023/10/02 04:53:39;;;;;;;21.73;12.30;;;15.50;99.90;;;;;;5131529;27;20409;-63
2023/10/02 04:56:21;;;;;;;19.25;11.60;;;15.50;99.90;;;;;;5129809;27;20046;-62
2023/10/02 04:58:51;;;;;;;24.20;12.32;;;15.50;99.90;;;;;;5128423;27;20168;-63
2023/10/02 05:01:41;;;;;;;21.65;12.20;;;15.50;99.90;;;;;;5112716;27;20039;-63
2023/10/02 05:04:07;;;;;;;20.90;12.02;;;15.50;99.90;;;;;;5111857;27;20047;-63
2023/10/02 05:06:44;;;;;;;22.23;12.18;;;15.40;99.90;;;;;;5111664;27;20066;-62
2023/10/02 05:11:57;;;;;;;;;;;15.40;99.90;;;;;;5113735;27;20119;-63
2023/10/02 05:14:28;;;;;;;18.95;10.70;;;15.40;99.90;;;;;;5112524;27;19928;-64
2023/10/02 05:17:16;;;;;;;19.90;10.88;;;15.30;99.90;;;;;;5111105;27;20043;-62
2023/10/02 05:19:56;;;;;;;18.83;10.25;;;15.30;99.90;;;;;;5095489;28;20042;-63
2023/10/02 05:22:27;;;;;;;19.00;11.30;;;15.20;99.90;;;;;;5111563;28;20039;-63
2023/10/02 05:25:00;;;;;;;18.52;10.98;;;15.20;99.90;;;;;;5112697;27;20047;-62
2023/10/02 05:27:30;;;;;;;16.52;11.10;;;15.20;99.90;;;;;;5110941;28;20042;-62
2023/10/02 05:30:17;;;;;;;18.38;10.98;;;15.20;99.90;;;;;;5128265;28;20031;-62
2023/10/02 05:32:43;;;;;;;18.90;11.63;;;15.20;99.90;;;;;;5107853;28;20047;-63
2023/10/02 05:37:45;;;;;;;19.75;11.45;;;15.20;99.90;;;;;;5110833;28;20401;-63
2023/10/02 05:45:47;;;;;;;19.48;12.02;;;15.20;99.90;;;;;;5112432;28;20043;-62
2023/10/02 05:48:22;;;;;;;21.10;11.73;;;15.10;99.90;;;;;;5125396;27;20042;-63
2023/10/02 05:50:48;;;;;;;19.67;11.75;;;15.20;99.90;;;;;;5108638;28;20072;-63
2023/10/02 05:53:25;;;;;;;21.83;11.82;;;15.20;99.90;;;;;;5110776;28;20536;-64
2023/10/02 05:55:57;;;;;;;20.50;10.70;;;15.20;99.90;;;;;;5111510;28;20120;-63
2023/10/02 05:58:32;;;;;;;17.52;10.52;;;15.20;99.90;;;;;;5111051;28;20550;-63
2023/10/02 06:01:06;;;;;;;21.33;11.93;;;15.20;99.90;;;;;;5110730;28;20039;-63
2023/10/02 06:03:34;;;;;;;17.88;11.10;;;15.20;99.90;;;;;;5110802;28;20073;-63
2023/10/02 06:06:23;;;;;;;21.38;12.00;;;15.20;99.90;;;;;;5127438;28;20141;-63
2023/10/02 06:09:16;;;;;;;18.55;10.18;;;15.20;99.90;;;;;;5109215;28;20046;-63
2023/10/02 06:12:02;;;;;;;18.25;10.45;;;15.20;99.90;;;;;;5129422;27;20039;-63
2023/10/02 06:14:28;;;;;;;19.05;10.57;;;15.20;99.90;;;;;;5127908;27;20543;-63
2023/10/02 06:16:54;;;;;;;21.92;11.70;;;15.30;99.90;;;;;;5129585;28;20470;-63
2023/10/02 06:19:20;;;;;;;20.15;11.43;;;15.30;99.90;;;;;;5111012;28;20074;-64
2023/10/02 06:22:00;;;;;;;22.77;12.13;;;15.40;99.90;;;;;;5109083;27;20049;-63
2023/10/02 06:24:29;;;;;;;20.75;12.32;;;15.40;99.90;;;;;;5129286;28;20035;-63
2023/10/02 06:27:04;;;;;;;19.23;12.05;;;15.50;99.90;;;;;;5111450;28;20035;-63
2023/10/02 06:29:44;;;;;;;20.83;12.43;;;15.50;99.90;;;;;;5130361;28;20611;-64
2023/10/02 06:32:11;;;;;;;21.63;12.05;;;15.50;99.90;;;;;;5110335;28;20470;-63
2023/10/02 06:34:39;;;;;;;18.40;10.68;;;15.50;99.90;;;;;;5131702;27;20053;-63
2023/10/02 06:37:11;;;;;;;21.70;11.35;;;15.60;99.90;;;;;;5113545;27;20367;-63
2023/10/02 06:39:38;;;;;;;20.42;11.52;;;15.70;99.90;;;;;;5114783;27;20112;-64
2023/10/02 06:42:08;;;;;;;20.92;11.65;;;15.60;99.90;;;;;;5114070;27;20049;-63
2023/10/02 06:44:53;;;;;;;20.67;11.70;;;15.70;99.90;;;;;;5113644;27;20086;-63
2023/10/02 06:47:29;;;;;;;20.98;12.52;;;15.60;99.90;;;;;;5113899;27;20461;-64
2023/10/02 06:50:03;;;;;;;24.05;11.75;;;15.60;99.90;;;;;;5133779;27;20035;-63
2023/10/02 06:52:33;;;;;;;18.10;11.23;;;15.70;99.90;;;;;;5129386;27;20484;-63
2023/10/02 06:55:01;;;;;;;20.27;10.50;;;15.70;99.90;;;;;;5131950;27;20119;-64
2023/10/02 06:57:27;;;;;;;19.52;11.63;;;15.80;99.90;;;;;;5097194;27;20051;-64
2023/10/02 06:59:53;;;;;;;20.83;11.70;;;15.90;99.90;;;;;;5114865;27;20050;-63
2023/10/02 07:02:25;;;;;;;21.05;11.70;;;16.00;99.90;;;;;;5112934;27;20035;-64
2023/10/02 07:04:52;;;;;;;20.83;12.05;;;16.00;99.90;;;;;;5131521;27;20095;-64
2023/10/02 07:07:24;;;;;;;19.65;11.40;;;16.10;99.90;;;;;;5112931;27;20050;-64
2023/10/02 07:09:50;;;;;;;;;;;16.10;99.90;;;;;;5115671;27;20039;-63
2023/10/02 07:12:16;;;;;;;21.23;11.48;;;16.20;99.90;;;;;;5112991;27;19998;-63
2023/10/02 07:14:43;;;;;;;22.25;11.57;;;16.30;99.90;;;;;;5112992;27;20569;-63
2023/10/02 07:17:16;;;;;;;20.50;11.43;;;16.40;99.90;;;;;;5110079;27;20370;-63
2023/10/02 07:19:50;;;;;;;21.40;11.60;;;16.40;99.90;;;;;;5113859;27;20081;-63
2023/10/02 07:22:17;;;;;;;22.33;12.32;;;16.50;99.90;;;;;;5113517;27;20125;-63
2023/10/02 07:24:47;;;;;;;22.13;12.43;;;16.50;99.90;;;;;;5113529;27;20031;-63
2023/10/02 07:27:26;;;;;;;22.98;11.95;;;16.60;99.90;;;;;;5113448;27;20043;-63
2023/10/02 07:29:57;;;;;;;21.17;12.40;;;16.60;99.90;;;;;;5113474;27;20035;-63
2023/10/02 07:32:25;;;;;;;22.80;12.13;;;16.70;99.90;;;;;;5111952;27;20053;-63
2023/10/02 07:34:53;;;;;;;22.13;12.77;;;16.80;99.90;;;;;;5131984;27;20428;-63
2023/10/02 07:37:24;;;;;;;21.73;12.55;;;16.80;99.90;;;;;;5112191;27;20118;-63
2023/10/02 07:39:57;;;;;;;22.35;12.27;;;16.90;99.90;;;;;;5114783;27;20307;-63
2023/10/02 07:42:34;;;;;;;20.52;12.27;;;17.00;99.90;;;;;;5113388;27;20082;-63
2023/10/02 07:45:24;;;;;;;23.73;12.95;;;17.00;99.90;;;;;;5130426;27;20035;-63
2023/10/02 07:48:08;;;;;;;22.65;12.98;;;17.10;99.90;;;;;;5113049;27;20074;-63
2023/10/02 07:50:39;;;;;;;21.08;11.20;;;17.20;99.90;;;;;;5130403;27;20071;-63
2023/10/02 07:53:05;;;;;;;22.25;12.70;;;17.30;99.90;;;;;;5132286;27;20028;-61
2023/10/02 07:55:40;;;;;;;19.48;11.23;;;17.30;99.90;;;;;;5112237;27;20047;-61
2023/10/02 07:58:13;;;;;;;21.13;12.63;;;17.40;99.90;;;;;;5096316;27;20046;-63
2023/10/02 08:00:42;;;;;;;21.45;12.43;;;17.50;99.90;;;;;;5097032;27;20035;-63
2023/10/02 08:05:58;;;;;;;19.23;11.77;;;17.70;99.90;;;;;;5129896;27;20058;-63
2023/10/02 08:08:26;;;;;;;21.85;12.30;;;17.70;99.90;;;;;;5113390;27;20042;-63
2023/10/02 08:10:53;;;;;;;22.20;12.43;;;17.80;99.90;;;;;;5113677;27;20035;-63
2023/10/02 08:13:32;;;;;;;22.90;12.98;;;17.90;99.90;;;;;;5130288;27;20079;-63
2023/10/02 08:16:06;;;;;;;24.70;13.45;;;17.90;99.90;;;;;;5097014;27;20504;-63
2023/10/02 08:18:31;;;;;;;22.10;12.52;;;18.00;99.90;;;;;;5111802;27;20050;-63
2023/10/02 08:21:00;;;;;;;24.15;13.07;;;18.00;99.90;;;;;;5113633;27;20031;-63
2023/10/02 08:23:27;;;;;;;21.38;12.27;;;18.10;99.90;;;;;;5111225;27;20043;-63
2023/10/02 08:26:06;;;;;;;21.40;12.27;;;18.20;99.90;;;;;;5113718;27;20495;-63
2023/10/02 08:28:35;;;;;;;22.10;12.80;;;18.20;99.90;;;;;;5111815;27;20390;-63
2023/10/02 08:31:02;;;;;;;23.05;13.20;;;18.20;99.90;;;;;;5130916;27;20027;-63
2023/10/02 08:33:30;;;;;;;24.88;13.60;;;18.20;99.90;;;;;;5112085;27;20039;-63
2023/10/02 08:36:01;;;;;;;25.48;13.77;;;18.20;99.90;;;;;;5108611;27;20055;-64
2023/10/02 08:38:27;;;;;;;22.45;13.13;;;18.10;99.90;;;;;;5112021;27;20084;-63
2023/10/02 08:41:02;;;;;;;22.33;14.13;;;18.10;99.90;;;;;;5112491;27;20043;-63
2023/10/02 08:43:31;;;;;;;28.15;15.00;;;18.10;99.90;;;;;;5112885;27;20043;-63
2023/10/02 08:45:57;;;;;;;26.45;15.30;;;18.10;99.90;;;;;;5107010;27;20038;-63
2023/10/02 08:48:25;;;;;;;24.67;13.98;;;18.20;99.90;;;;;;5113212;27;20035;-63
2023/10/02 08:50:57;;;;;;;26.45;14.90;;;18.30;99.90;;;;;;5094109;27;20064;-61
2023/10/02 08:53:23;;;;;;;27.60;15.70;;;18.30;99.90;;;;;;5113164;27;20047;-63
2023/10/02 08:56:21;;;;;;;24.73;14.80;;;18.40;99.90;;;;;;5111715;27;20042;-63
2023/10/02 08:59:14;;;;;;;24.35;16.02;;;18.30;99.90;;;;;;5110734;27;20183;-63
2023/10/02 09:01:34;;;;;;;25.75;15.63;;;18.40;99.90;;;;;;5127543;27;20401;-63
2023/10/02 09:06:44;;;;;;;28.58;16.58;;;18.50;99.90;;;;;;5106432;27;20100;-63
2023/10/02 09:11:53;;;;;;;28.08;16.45;;;18.60;99.90;;;;;;5112484;27;20046;-63
2023/10/02 09:17:25;;;;;;;27.58;17.25;;;18.70;99.90;;;;;;5109271;27;20057;-63
2023/10/02 09:20:00;;;;;;;29.08;17.52;;;18.80;99.90;;;;;;5095388;27;20035;-64
2023/10/02 09:22:27;;;;;;;31.45;18.40;;;19.10;99.90;;;;;;5130022;27;20045;-61
2023/10/02 09:25:15;;;;;;;31.23;17.58;;;19.30;99.90;;;;;;5130833;27;20099;-63
2023/10/02 09:31:14;;;;;;;28.25;16.58;;;19.30;99.90;;;;;;5047197;28;20500;-63
2023/10/02 09:33:37;;;;;;;30.60;17.13;;;19.30;99.90;;;;;;5008995;28;20053;-63
2023/10/02 09:36:04;;;;;;;28.00;16.48;;;19.30;99.90;;;;;;5010038;28;20041;-64
2023/10/02 09:38:32;;;;;;;34.45;19.30;;;19.50;99.90;;;;;;5010627;28;20049;-64
2023/10/02 09:41:08;;;;;;;33.53;18.67;;;19.60;99.90;;;;;;5025896;28;20197;-63
2023/10/02 09:43:37;;;;;;;38.08;21.13;;;19.60;99.90;;;;;;5047179;28;20044;-63
2023/10/02 09:46:15;;;;;;;37.95;22.65;;;19.60;99.90;;;;;;5030556;28;20124;-63
2023/10/02 09:49:03;;;;;;;41.53;22.90;;;19.60;99.90;;;;;;5023377;28;20042;-63
2023/10/02 09:52:07;;;;;;;37.80;20.85;;;19.60;99.90;;;;;;5010467;28;20052;-63
2023/10/02 09:54:40;;;;;;;33.42;18.92;;;19.60;99.90;;;;;;5026988;28;20088;-63
2023/10/02 09:57:16;;;;;;;37.50;19.33;;;19.50;99.90;;;;;;5010073;28;20041;-63
2023/10/02 09:59:48;;;;;;;37.95;19.77;;;19.50;99.90;;;;;;5014633;28;20046;-64
2023/10/02 10:02:49;;;;;;;38.47;19.75;;;19.40;99.90;;;;;;5010967;28;20049;-63
2023/10/02 10:13:32;;;;;;;31.88;19.52;;;19.60;99.90;;;;;;5114531;27;20486;-64
2023/10/02 10:16:18;;;;;;;34.97;20.27;;;19.70;99.90;;;;;;5130924;27;20035;-64
2023/10/02 10:21:55;;;;;;;33.90;20.05;;;19.90;99.90;;;;;;5115296;27;20126;-63
2023/10/02 10:24:56;;;;;;;38.20;20.70;;;19.80;99.90;;;;;;5131977;27;20557;-63
2023/10/02 10:27:40;;;;;;;37.08;20.83;;;19.80;99.90;;;;;;5115877;27;20108;-64
2023/10/02 10:30:28;;;;;;;40.55;23.80;;;19.80;99.90;;;;;;5133385;27;20131;-64
2023/10/02 10:35:55;;;;;;;38.15;22.70;;;19.90;99.90;;;;;;5134140;27;20087;-63
2023/10/02 10:38:25;;;;;;;36.58;22.55;;;20.10;99.90;;;;;;5115582;27;20047;-63
2023/10/02 10:40:54;;;;;;;36.22;21.85;;;20.40;99.90;;;;;;5114855;27;20043;-63
2023/10/02 10:43:26;;;;;;;34.45;21.92;;;20.60;99.90;;;;;;5115718;27;20098;-63
2023/10/02 10:45:54;;;;;;;33.20;21.00;;;20.80;99.90;;;;;;5134017;27;20110;-64
2023/10/02 10:48:23;;;;;;;34.33;19.60;;;20.90;99.90;;;;;;5111852;27;20124;-63
2023/10/02 10:53:47;;;;;;;32.53;18.35;;;21.50;99.90;;;;;;5012756;28;20045;-63
2023/10/02 10:56:19;;;;;;;32.55;18.00;;;22.00;99.90;;;;;;5011907;28;20456;-64
2023/10/02 10:58:53;;;;;;;27.92;17.20;;;22.30;99.90;;;;;;5028711;28;20057;-63
2023/10/02 11:01:21;;;;;;;26.73;16.73;;;22.20;99.90;;;;;;5009108;28;20041;-63
2023/10/02 11:03:58;;;;;;;30.10;17.33;;;22.10;99.90;;;;;;5028536;28;20049;-63
2023/10/02 11:06:25;;;;;;;30.88;17.05;;;22.10;99.90;;;;;;5012997;28;20057;-63
2023/10/02 11:09:12;;;;;;;27.85;16.40;;;22.20;99.90;;;;;;5029761;28;20045;-63
2023/10/02 11:11:50;;;;;;;27.58;15.77;;;22.00;99.90;;;;;;5012699;28;20056;-63
2023/10/02 11:14:34;;;;;;;26.85;15.07;;;22.10;99.90;;;;;;4996538;28;20045;-63
2023/10/02 11:17:04;;;;;;;28.95;15.80;;;21.90;99.90;;;;;;5029693;28;20060;-63
2023/10/02 11:22:20;;;;;;;30.52;16.63;;;21.80;99.90;;;;;;5011899;28;20572;-63
2023/10/02 11:24:52;;;;;;;32.08;15.63;;;21.70;99.90;;;;;;5029320;28;20157;-63
2023/10/02 11:27:19;;;;;;;29.67;16.38;;;21.50;99.90;;;;;;5012603;28;20048;-63
2023/10/02 11:30:02;;;;;;;29.75;16.33;;;21.40;99.90;;;;;;5045829;27;20043;-62
2023/10/02 11:32:53;;;;;;;26.63;15.05;;;21.40;99.90;;;;;;5112994;27;20103;-63
2023/10/02 11:35:20;;;;;;;29.80;15.48;;;21.30;99.90;;;;;;5097538;27;20413;-63
2023/10/02 11:37:47;;;;;;;31.98;16.67;;;21.20;99.90;;;;;;5132922;27;20042;-63
2023/10/02 11:40:13;;;;;;;32.78;16.15;;;21.30;99.90;;;;;;5114451;27;20122;-64
2023/10/02 11:42:40;;;;;;;30.83;16.42;;;21.30;99.90;;;;;;5132323;27;20558;-64
2023/10/02 11:45:07;;;;;;;27.00;14.52;;;21.20;99.90;;;;;;5111111;27;20051;-63
2023/10/02 11:47:33;;;;;;;30.77;16.92;;;21.30;99.90;;;;;;5132708;27;20090;-63
2023/10/02 11:49:59;;;;;;;28.63;15.95;;;21.30;99.90;;;;;;5111841;27;20562;-63
2023/10/02 11:52:25;;;;;;;28.95;14.82;;;21.40;99.90;;;;;;5132698;27;20189;-63
2023/10/02 11:54:51;;;;;;;24.33;14.60;;;21.50;99.90;;;;;;5112982;27;20118;-63
2023/10/02 11:57:16;;;;;;;25.52;14.60;;;21.50;99.90;;;;;;5114058;27;20039;-63
2023/10/02 11:59:50;;;;;;;25.08;14.13;;;21.50;99.90;;;;;;5113474;27;20039;-63
2023/10/02 12:02:19;;;;;;;26.33;14.30;;;21.60;99.90;;;;;;5130147;27;20069;-63
2023/10/02 12:04:46;;;;;;;28.08;15.43;;;21.70;99.90;;;;;;5112527;27;20083;-64
2023/10/02 12:07:16;;;;;;;26.98;15.23;;;21.70;99.90;;;;;;5128205;27;20047;-63
2023/10/02 12:09:47;;;;;;;25.92;14.88;;;21.80;99.90;;;;;;5094831;27;20043;-63
2023/10/02 12:12:13;;;;;;;23.85;12.98;;;21.80;99.90;;;;;;5129820;27;20043;-63
2023/10/02 12:14:42;;;;;;;21.85;11.88;;;21.80;99.90;;;;;;5113317;27;20097;-64
2023/10/02 12:17:11;;;;;;;23.23;12.35;;;21.80;99.90;;;;;;5131721;27;20039;-63
2023/10/02 12:19:40;;;;;;;19.42;11.77;;;21.70;99.90;;;;;;5113612;27;20154;-63
2023/10/02 12:22:09;;;;;;;17.30;11.18;;;21.70;99.90;;;;;;5112303;27;20062;-64
2023/10/02 12:24:36;;;;;;;17.52;10.85;;;21.80;99.90;;;;;;5112405;27;20046;-63
2023/10/02 12:27:05;;;;;;;22.65;12.45;;;21.80;99.90;;;;;;5131750;27;21193;-64
2023/10/02 12:29:31;;;;;;;17.08;9.52;;;21.80;99.90;;;;;;5132120;27;20046;-63
2023/10/02 12:32:00;;;;;;;17.15;9.80;;;21.80;99.90;;;;;;5113099;27;20481;-63
2023/10/02 12:34:27;;;;;;;16.95;10.57;;;21.80;99.90;;;;;;5096582;27;20055;-61
2023/10/02 12:36:54;;;;;;;15.30;10.10;;;21.90;99.90;;;;;;5131616;27;20047;-64
2023/10/02 12:39:22;;;;;;;15.75;9.63;;;21.90;99.90;;;;;;5112787;27;20046;-64
2023/10/02 12:41:48;;;;;;;14.93;9.40;;;22.00;99.90;;;;;;5110669;28;20531;-64
2023/10/02 12:44:14;;;;;;;16.23;10.07;;;21.90;99.90;;;;;;5131708;27;20031;-64
2023/10/02 12:46:44;;;;;;;15.82;9.48;;;21.90;99.90;;;;;;5113198;27;20050;-61
2023/10/02 12:49:13;;;;;;;16.63;10.32;;;22.00;99.90;;;;;;5131393;27;20050;-61
2023/10/02 12:51:40;;;;;;;15.32;10.02;;;22.00;99.90;;;;;;5131877;27;20039;-61
2023/10/02 12:54:07;;;;;;;19.65;10.65;;;22.10;99.90;;;;;;5113175;27;20035;-61
2023/10/02 12:56:33;;;;;;;17.77;9.50;;;22.30;99.90;;;;;;5131747;27;20035;-62
2023/10/02 12:58:59;;;;;;;20.25;11.52;;;22.30;99.90;;;;;;5116238;27;20404;-62
2023/10/02 13:01:29;;;;;;;19.45;11.43;;;22.40;99.90;;;;;;5131722;27;20110;-61
2023/10/02 13:03:59;;;;;;;19.42;11.48;;;22.40;99.90;;;;;;5113079;27;20046;-62
2023/10/02 13:06:26;;;;;;;17.85;10.55;;;22.40;99.90;;;;;;5112927;27;20126;-62
2023/10/02 13:09:03;;;;;;;18.77;11.43;;;22.40;99.90;;;;;;5112698;27;20118;-63
2023/10/02 13:11:28;;;;;;;17.58;10.90;;;22.30;99.90;;;;;;5112733;27;20054;-62
2023/10/02 13:13:55;;;;;;;18.05;10.93;;;22.20;99.90;;;;;;5131623;27;20474;-62
2023/10/02 13:16:23;;;;;;;16.73;10.43;;;22.20;99.90;;;;;;5112958;27;20120;-62
2023/10/02 13:18:50;;;;;;;19.95;10.98;;;22.20;99.90;;;;;;5112675;27;20039;-62
2023/10/02 13:21:20;;;;;;;23.10;11.65;;;22.40;99.90;;;;;;5131521;27;20039;-62
2023/10/02 13:23:46;;;;;;;20.52;11.52;;;22.40;99.90;;;;;;5112942;27;20043;-61
2023/10/02 13:26:16;;;;;;;18.23;9.85;;;22.50;99.90;;;;;;5131126;27;20038;-61
2023/10/02 13:28:48;;;;;;;15.82;9.80;;;22.40;99.90;;;;;;5112601;27;20058;-63
2023/10/02 13:31:17;;;;;;;;;;;22.30;99.90;;;;;;5112191;28;20098;-61
2023/10/02 13:33:52;;;;;;;16.08;9.55;;;22.30;99.90;;;;;;5091575;28;19923;-61
2023/10/02 13:36:22;;;;;;;18.08;10.25;;;22.20;99.90;;;;;;5103687;28;20027;-62
2023/10/02 13:38:53;;;;;;;19.25;10.15;;;22.10;99.90;;;;;;5110886;28;20505;-62
2023/10/02 13:41:19;;;;;;;19.13;10.35;;;22.10;99.90;;;;;;5107349;28;20038;-62
2023/10/02 13:43:47;;;;;;;17.80;11.57;;;22.00;99.90;;;;;;5109491;27;20046;-63
2023/10/02 13:46:14;;;;;;;18.80;10.55;;;22.00;99.90;;;;;;5132868;27;20486;-62
2023/10/02 13:48:54;;;;;;;20.83;11.07;;;22.00;99.90;;;;;;5133615;27;20042;-62
2023/10/02 13:51:21;;;;;;;18.10;10.32;;;22.00;99.90;;;;;;5116240;27;20035;-61
2023/10/02 13:53:47;;;;;;;15.57;9.20;;;22.00;99.90;;;;;;5116344;27;20043;-61
2023/10/02 13:56:20;;;;;;;18.23;9.70;;;22.00;99.90;;;;;;5135013;27;20096;-62
2023/10/02 13:58:50;;;;;;;20.58;10.77;;;22.10;99.90;;;;;;5098583;27;20242;-62
2023/10/02 14:01:25;;;;;;;14.57;9.00;;;22.10;99.90;;;;;;5113369;27;20043;-61
2023/10/02 14:03:55;;;;;;;16.55;8.82;;;22.20;99.90;;;;;;5116316;27;20027;-62
2023/10/02 14:06:28;;;;;;;15.85;9.95;;;22.20;99.90;;;;;;5134512;27;20063;-61